Terminal Aerodrome Forecast
Issued by NWS Cleveland, OH

Home | Current Version | Previous Version | Graphics & Text | Print | Product List | Glossary On
Versions: 1 2 3 4 5 6 7 8 9 10 11 12 13 14 15 16 17 18 19 20 21 22 23 24 25 26 27 28 29 30 31 32 33 34 35 36 37 38 39
000
FTUS41 KCLE 191400 AAA
TAFCLE
TAF AMD
KCLE 191457Z 1915/2018 29005KT P6SM BKN035
     FM191900 25007KT P6SM SCT035 BKN250
     FM192300 20006KT P6SM SCT100 BKN250
     FM201600 20012KT P6SM OVC050=

USA.gov is the U.S. government's official web portal to all federal, state and local government web resources and services.